Time;durP1;ratioP1;P1;durP2;ratioP2;P2;SDS_P1;SDS_P2;PMS_P1;PMS_P2;Temp;Humidity;BMP_temperature;BMP_pressure;BME280_temperature;BME280_humidity;BME280_pressure;Samples;Min_cycle;Max_cycle;Signal;HPM_P1;HPM_P2
2023/09/17 00:01:23;;;;;;;;;;;;;;;;;;5042067;28;19936;-61
2023/09/17 00:03:49;;;;;;;;;;;;;;;;;;5041431;28;20461;-61
2023/09/17 00:06:15;;;;;;;;;;;;;;;;;;5044410;28;20007;-62
2023/09/17 00:08:41;;;;;;;;;;;;;;;;;;5027597;28;19979;-61
2023/09/17 00:11:07;;;;;;;;;;;;;;;;;;5016033;28;19964;-61
2023/09/17 00:13:33;;;;;;;;;;;;;;;;;;5042538;28;19963;-61
2023/09/17 00:16:00;;;;;;;;;;;;;;;;;;5025881;28;19941;-61
2023/09/17 00:18:26;;;;;;;;;;;;;;;;;;5036745;28;19929;-61
2023/09/17 00:20:52;;;;;;;;;;;;;;;;;;5041261;28;19929;-61
2023/09/17 00:23:18;;;;;;;;;;;;;;;;;;5044762;28;20356;-61
2023/09/17 00:25:43;;;;;;;;;;;;;;;;;;5036282;28;19968;-61
2023/09/17 00:28:09;;;;;;;;;;;;;;;;;;5039397;28;20326;-61
2023/09/17 00:30:35;;;;;;;;;;;;;;;;;;5042037;28;19935;-61
2023/09/17 00:33:02;;;;;;;;;;;;;;;;;;5037406;28;19925;-61
2023/09/17 00:35:28;;;;;;;;;;;;;;;;;;5043059;28;19975;-61
2023/09/17 00:37:54;;;;;;;;;;;;;;;;;;5034847;28;19921;-61
2023/09/17 00:40:19;;;;;;;;;;;;;;;;;;5026690;28;19936;-61
2023/09/17 00:42:45;;;;;;;;;;;;;;;;;;5023797;28;19967;-61
2023/09/17 00:45:12;;;;;;;;;;;;;;;;;;5041187;28;19921;-61
2023/09/17 00:47:38;;;;;;;;;;;;;;;;;;5044922;28;19925;-62
2023/09/17 00:50:04;;;;;;;;;;;;;;;;;;5043251;28;19978;-61
2023/09/17 00:52:30;;;;;;;;;;;;;;;;;;5025078;28;20351;-61
2023/09/17 00:54:55;;;;;;;;;;;;;;;;;;5041901;28;19929;-61
2023/09/17 00:57:21;;;;;;;;;;;;;;;;;;5037218;28;19921;-61
2023/09/17 00:59:47;;;;;;;;;;;;;;;;;;5023066;28;19975;-61
2023/09/17 01:02:13;;;;;;;;;;;;;;;;;;5038212;28;19921;-61
2023/09/17 01:04:39;;;;;;;;;;;;;;;;;;5046398;28;19920;-61
2023/09/17 01:07:05;;;;;;;;;;;;;;;;;;5038292;28;20374;-61
2023/09/17 01:09:31;;;;;;;;;;;;;;;;;;5049645;28;20016;-61
2023/09/17 01:11:57;;;;;;;;;;;;;;;;;;5016391;28;20370;-61
2023/09/17 01:14:23;;;;;;;;;;;;;;;;;;5038114;28;19925;-62
2023/09/17 01:16:49;;;;;;;;;;;;;;;;;;5050803;28;19925;-61
2023/09/17 01:19:15;;;;;;;;;;;;;;;;;;5040698;28;19932;-61
2023/09/17 01:21:41;;;;;;;;;;;;;;;;;;5046775;28;19921;-61
2023/09/17 01:24:07;;;;;;;;;;;;;;;;;;5046855;28;20004;-62
2023/09/17 01:26:33;;;;;;;;;;;;;;;;;;5046798;28;19933;-62
2023/09/17 01:28:59;;;;;;;;;;;;;;;;;;5045535;28;20260;-62
2023/09/17 01:31:25;;;;;;;;;;;;;;;;;;5026478;28;20008;-62
2023/09/17 01:33:51;;;;;;;;;;;;;;;;;;5044611;28;20020;-62
2023/09/17 01:36:17;;;;;;;;;;;;;;;;;;5044671;28;19951;-62
2023/09/17 01:38:42;;;;;;;;;;;;;;;;;;5045739;28;19925;-62
2023/09/17 01:41:09;;;;;;;;;;;;;;;;;;5049826;28;20470;-62
2023/09/17 01:43:37;;;;;;;;;;;;;;;;;;5043738;28;19935;-62
2023/09/17 01:46:03;;;;;;;;;;;;;;;;;;5045029;28;19929;-62
2023/09/17 01:48:29;;;;;;;;;;;;;;;;;;5048727;28;20497;-62
2023/09/17 01:50:55;;;;;;;;;;;;;;;;;;5044688;28;19920;-62
2023/09/17 01:53:21;;;;;;;;;;;;;;;;;;5031049;28;19920;-62
2023/09/17 01:55:46;;;;;;;;;;;;;;;;;;5041860;28;19925;-62
2023/09/17 01:58:12;;;;;;;;;;;;;;;;;;5046433;28;19928;-62
2023/09/17 02:00:38;;;;;;;;;;;;;;;;;;5040580;28;19973;-62
2023/09/17 02:03:05;;;;;;;;;;;;;;;;;;5040884;28;20366;-62
2023/09/17 02:05:31;;;;;;;;;;;;;;;;;;5044005;28;19925;-62
2023/09/17 02:07:57;;;;;;;;;;;;;;;;;;5034377;28;20299;-62
2023/09/17 02:10:23;;;;;;;;;;;;;;;;;;5046363;28;19928;-62
2023/09/17 02:12:49;;;;;;;;;;;;;;;;;;5029845;28;19936;-62
2023/09/17 02:15:15;;;;;;;;;;;;;;;;;;5045871;28;20518;-61
2023/09/17 02:17:42;;;;;;;;;;;;;;;;;;5009945;28;19924;-62
2023/09/17 02:20:11;;;;;;;;;;;;;;;;;;5043598;28;19986;-62
2023/09/17 02:22:37;;;;;;;;;;;;;;;;;;5033480;28;19925;-62
2023/09/17 02:25:03;;;;;;;;;;;;;;;;;;5049739;28;20409;-62
2023/09/17 02:27:29;;;;;;;;;;;;;;;;;;5032305;28;20015;-62
2023/09/17 02:29:55;;;;;;;;;;;;;;;;;;5045738;28;20051;-62
2023/09/17 02:32:21;;;;;;;;;;;;;;;;;;5045540;28;19920;-62
2023/09/17 02:34:47;;;;;;;;;;;;;;;;;;5034831;28;20271;-62
2023/09/17 02:37:13;;;;;;;;;;;;;;;;;;5044671;28;19970;-62
2023/09/17 02:39:39;;;;;;;;;;;;;;;;;;5048645;28;19921;-62
2023/09/17 02:42:05;;;;;;;;;;;;;;;;;;5049569;28;19971;-62
2023/09/17 02:44:31;;;;;;;;;;;;;;;;;;5030452;28;20284;-62
2023/09/17 02:46:57;;;;;;;;;;;;;;;;;;5044928;28;19971;-62
2023/09/17 02:49:22;;;;;;;;;;;;;;;;;;5043282;28;19964;-62
2023/09/17 02:51:48;;;;;;;;;;;;;;;;;;5034180;28;19929;-62
2023/09/17 02:54:14;;;;;;;;;;;;;;;;;;5039902;22;19948;-68
2023/09/17 02:56:42;;;;;;;;;;;;;;;;;;5020703;28;20435;-69
2023/09/17 02:59:08;;;;;;;;;;;;;;;;;;5052453;28;19921;-69
2023/09/17 03:01:35;;;;;;;;;;;;;;;;;;5053825;28;19925;-69
2023/09/17 03:04:01;;;;;;;;;;;;;;;;;;5060038;28;19970;-69
2023/09/17 03:06:27;;;;;;;;;;;;;;;;;;5047029;28;19928;-69
2023/09/17 03:08:52;;;;;;;;;;;;;;;;;;5057307;28;19975;-69
2023/09/17 03:11:20;;;;;;;;;;;;;;;;;;5060746;28;19920;-68
2023/09/17 03:13:46;;;;;;;;;;;;;;;;;;5032298;28;19925;-69
2023/09/17 03:16:15;;;;;;;;;;;;;;;;;;5051192;28;19920;-69
2023/09/17 03:18:41;;;;;;;;;;;;;;;;;;5044509;28;20374;-68
2023/09/17 03:21:07;;;;;;;;;;;;;;;;;;5047258;28;19924;-68
2023/09/17 03:23:33;;;;;;;;;;;;;;;;;;5045503;28;19944;-68
2023/09/17 03:26:00;;;;;;;;;;;;;;;;;;5057216;28;19924;-69
2023/09/17 03:28:26;;;;;;;;;;;;;;;;;;5047589;28;19921;-69
2023/09/17 03:30:52;;;;;;;;;;;;;;;;;;5057497;28;19928;-70
2023/09/17 03:33:18;;;;;;;;;;;;;;;;;;5053322;28;19924;-68
2023/09/17 03:35:46;;;;;;;;;;;;;;;;;;5033595;28;19925;-69
2023/09/17 03:38:11;;;;;;;;;;;;;;;;;;5049384;28;19925;-69
2023/09/17 03:40:38;;;;;;;;;;;;;;;;;;5055791;28;20309;-69
2023/09/17 03:43:04;;;;;;;;;;;;;;;;;;5034593;28;19948;-68
2023/09/17 03:45:31;;;;;;;;;;;;;;;;;;5039224;28;20606;-69
2023/09/17 03:47:56;;;;;;;;;;;;;;;;;;5037600;28;19946;-69
2023/09/17 03:50:23;;;;;;;;;;;;;;;;;;5051658;28;19921;-69
2023/09/17 03:52:49;;;;;;;;;;;;;;;;;;5047891;28;19935;-68
2023/09/17 03:55:15;;;;;;;;;;;;;;;;;;5046875;28;19928;-69
2023/09/17 03:57:40;;;;;;;;;;;;;;;;;;5017155;28;20290;-69
2023/09/17 04:00:07;;;;;;;;;;;;;;;;;;5026476;28;19943;-69
2023/09/17 04:02:33;;;;;;;;;;;;;;;;;;5049725;28;19975;-69
2023/09/17 04:04:59;;;;;;;;;;;;;;;;;;5026116;28;20313;-69
2023/09/17 04:07:25;;;;;;;;;;;;;;;;;;5059554;28;19929;-69
2023/09/17 04:09:51;;;;;;;;;;;;;;;;;;5053393;28;20015;-69
2023/09/17 04:12:17;;;;;;;;;;;;;;;;;;5055371;28;20012;-69
2023/09/17 04:14:43;;;;;;;;;;;;;;;;;;5030076;28;19921;-69
2023/09/17 04:17:09;;;;;;;;;;;;;;;;;;5050955;28;19974;-69
2023/09/17 04:19:35;;;;;;;;;;;;;;;;;;5033938;28;20354;-68
2023/09/17 04:22:02;;;;;;;;;;;;;;;;;;5052876;28;19921;-69
2023/09/17 04:24:28;;;;;;;;;;;;;;;;;;5064397;28;20488;-68
2023/09/17 04:26:54;;;;;;;;;;;;;;;;;;5046711;28;19948;-68
2023/09/17 04:29:20;;;;;;;;;;;;;;;;;;5058012;28;20370;-69
2023/09/17 04:31:46;;;;;;;;;;;;;;;;;;5051356;28;20331;-69
2023/09/17 04:34:12;;;;;;;;;;;;;;;;;;5040420;28;20003;-69
2023/09/17 04:36:38;;;;;;;;;;;;;;;;;;5031534;28;20052;-68
2023/09/17 04:39:04;;;;;;;;;;;;;;;;;;5052735;28;20495;-68
2023/09/17 04:41:30;;;;;;;;;;;;;;;;;;5044420;28;19925;-68
2023/09/17 04:43:56;;;;;;;;;;;;;;;;;;5023108;28;19920;-68
2023/09/17 04:46:22;;;;;;;;;;;;;;;;;;5051355;28;19978;-68
2023/09/17 04:48:48;;;;;;;;;;;;;;;;;;5060539;28;19928;-68
2023/09/17 04:51:16;;;;;;;;;;;;;;;;;;5055374;28;19932;-68
2023/09/17 04:53:42;;;;;;;;;;;;;;;;;;5054391;28;19928;-69
2023/09/17 04:56:08;;;;;;;;;;;;;;;;;;5039506;28;19974;-69
2023/09/17 04:58:34;;;;;;;;;;;;;;;;;;5056623;28;19952;-68
2023/09/17 05:01:00;;;;;;;;;;;;;;;;;;5057287;28;19935;-69
2023/09/17 05:03:26;;;;;;;;;;;;;;;;;;5029061;28;20279;-69
2023/09/17 05:05:51;;;;;;;;;;;;;;;;;;5035982;28;19924;-69
2023/09/17 05:08:18;;;;;;;;;;;;;;;;;;5053299;28;19955;-69
2023/09/17 05:10:44;;;;;;;;;;;;;;;;;;5057101;28;19979;-69
2023/09/17 05:13:10;;;;;;;;;;;;;;;;;;5053725;28;19921;-69
2023/09/17 05:15:36;;;;;;;;;;;;;;;;;;5049094;28;19921;-69
2023/09/17 05:18:08;;;;;;;;;;;;;;;;;;5029449;28;19971;-68
2023/09/17 05:20:35;;;;;;;;;;;;;;;;;;5033240;28;20042;-68
2023/09/17 05:23:01;;;;;;;;;;;;;;;;;;5028350;28;20408;-69
2023/09/17 05:25:27;;;;;;;;;;;;;;;;;;5049930;28;19952;-68
2023/09/17 05:27:53;;;;;;;;;;;;;;;;;;5027197;28;19921;-68
2023/09/17 05:30:18;;;;;;;;;;;;;;;;;;5043664;28;20008;-68
2023/09/17 05:32:44;;;;;;;;;;;;;;;;;;5047567;28;19929;-68
2023/09/17 05:35:10;;;;;;;;;;;;;;;;;;5046599;28;19956;-68
2023/09/17 05:37:36;;;;;;;;;;;;;;;;;;5048552;28;19983;-68
2023/09/17 05:40:03;;;;;;;;;;;;;;;;;;5028216;28;19927;-68
2023/09/17 05:42:29;;;;;;;;;;;;;;;;;;5039037;28;20015;-68
2023/09/17 05:44:55;;;;;;;;;;;;;;;;;;5023938;28;19929;-68
2023/09/17 05:47:21;;;;;;;;;;;;;;;;;;5055210;28;19920;-68
2023/09/17 05:49:47;;;;;;;;;;;;;;;;;;5026485;28;19921;-69
2023/09/17 05:52:12;;;;;;;;;;;;;;;;;;5028592;28;19932;-69
2023/09/17 05:54:38;;;;;;;;;;;;;;;;;;5044083;28;19924;-69
2023/09/17 05:57:04;;;;;;;;;;;;;;;;;;5047597;28;19924;-70
2023/09/17 05:59:30;;;;;;;;;;;;;;;;;;5046321;28;19921;-69
2023/09/17 06:01:57;;;;;;;;;;;;;;;;;;5044616;28;19964;-69
2023/09/17 06:04:23;;;;;;;;;;;;;;;;;;5044681;28;19932;-69
2023/09/17 06:06:49;;;;;;;;;;;;;;;;;;5031509;28;19920;-69
2023/09/17 06:09:14;;;;;;;;;;;;;;;;;;5051486;28;19939;-69
2023/09/17 06:11:40;;;;;;;;;;;;;;;;;;5027220;28;20001;-69
2023/09/17 06:14:06;;;;;;;;;;;;;;;;;;5049735;28;19929;-69
2023/09/17 06:16:32;;;;;;;;;;;;;;;;;;5047257;28;19931;-68
2023/09/17 06:18:58;;;;;;;;;;;;;;;;;;5043655;28;19940;-69
2023/09/17 06:21:24;;;;;;;;;;;;;;;;;;5048407;28;20350;-69
2023/09/17 06:23:50;;;;;;;;;;;;;;;;;;5027336;28;19920;-69
2023/09/17 06:26:16;;;;;;;;;;;;;;;;;;5009436;28;19926;-69
2023/09/17 06:28:42;;;;;;;;;;;;;;;;;;5038747;28;19936;-68
2023/09/17 06:31:08;;;;;;;;;;;;;;;;;;5046143;28;19968;-68
2023/09/17 06:33:34;;;;;;;;;;;;;;;;;;5030892;28;20309;-68
2023/09/17 06:36:00;;;;;;;;;;;;;;;;;;5045629;28;19920;-69
2023/09/17 06:38:26;;;;;;;;;;;;;;;;;;5045830;28;20443;-68
2023/09/17 06:40:52;;;;;;;;;;;;;;;;;;5051406;28;19921;-68
2023/09/17 06:43:18;;;;;;;;;;;;;;;;;;5045036;28;19921;-69
2023/09/17 06:45:44;;;;;;;;;;;;;;;;;;5043449;28;20184;-69
2023/09/17 06:48:10;;;;;;;;;;;;;;;;;;5041803;28;20295;-69
2023/09/17 06:50:36;;;;;;;;;;;;;;;;;;5040725;28;19927;-69
2023/09/17 06:53:02;;;;;;;;;;;;;;;;;;5049016;28;19967;-69
2023/09/17 06:55:28;;;;;;;;;;;;;;;;;;5014784;28;19925;-69
2023/09/17 06:57:54;;;;;;;;;;;;;;;;;;5027019;28;19921;-69
2023/09/17 07:00:20;;;;;;;;;;;;;;;;;;5046513;28;19921;-69
2023/09/17 07:02:46;;;;;;;;;;;;;;;;;;5039018;28;19932;-68
2023/09/17 07:05:12;;;;;;;;;;;;;;;;;;5043280;28;20282;-68
2023/09/17 07:07:37;;;;;;;;;;;;;;;;;;5020286;28;19921;-68
2023/09/17 07:10:04;;;;;;;;;;;;;;;;;;5049210;28;19921;-69
2023/09/17 07:12:35;;;;;;;;;;;;;;;;;;5034167;28;19971;-68
2023/09/17 07:15:01;;;;;;;;;;;;;;;;;;5026602;28;19925;-69
2023/09/17 07:17:27;;;;;;;;;;;;;;;;;;5042622;28;19928;-69
2023/09/17 07:19:53;;;;;;;;;;;;;;;;;;5028361;28;19967;-68
2023/09/17 07:22:19;;;;;;;;;;;;;;;;;;5030539;28;19921;-68
2023/09/17 07:24:45;;;;;;;;;;;;;;;;;;5056174;28;19940;-68
2023/09/17 07:27:11;;;;;;;;;;;;;;;;;;5055380;28;19921;-69
2023/09/17 07:29:37;;;;;;;;;;;;;;;;;;5041422;28;20027;-68
2023/09/17 07:32:03;;;;;;;;;;;;;;;;;;5042865;28;19925;-68
2023/09/17 07:34:30;;;;;;;;;;;;;;;;;;5048402;28;20499;-68
2023/09/17 07:36:56;;;;;;;;;;;;;;;;;;5049750;28;19970;-68
2023/09/17 07:39:22;;;;;;;;;;;;;;;;;;5030688;28;20027;-68
2023/09/17 07:41:48;;;;;;;;;;;;;;;;;;5029221;28;19967;-69
2023/09/17 07:44:14;;;;;;;;;;;;;;;;;;5047720;28;19927;-68
2023/09/17 07:46:40;;;;;;;;;;;;;;;;;;5041841;28;19952;-68
2023/09/17 07:49:07;;;;;;;;;;;;;;;;;;5045867;28;19929;-68
2023/09/17 07:51:33;;;;;;;;;;;;;;;;;;5049421;28;19927;-68
2023/09/17 07:53:59;;;;;;;;;;;;;;;;;;5044079;28;19929;-69
2023/09/17 07:56:25;;;;;;;;;;;;;;;;;;5011823;28;19925;-69
2023/09/17 07:58:51;;;;;;;;;;;;;;;;;;5049689;28;19952;-69
2023/09/17 08:01:17;;;;;;;;;;;;;;;;;;5028535;28;20420;-69
2023/09/17 08:03:43;;;;;;;;;;;;;;;;;;5048342;28;20346;-69
2023/09/17 08:06:11;;;;;;;;;;;;;;;;;;5048693;28;19978;-68
2023/09/17 08:08:37;;;;;;;;;;;;;;;;;;5022499;28;20000;-68
2023/09/17 08:11:03;;;;;;;;;;;;;;;;;;5041586;28;20011;-68
2023/09/17 08:13:29;;;;;;;;;;;;;;;;;;5024902;28;19971;-68
2023/09/17 08:15:55;;;;;;;;;;;;;;;;;;5048912;28;20379;-69
2023/09/17 08:18:21;;;;;;;;;;;;;;;;;;5045441;28;19921;-69
2023/09/17 08:20:48;;;;;;;;;;;;;;;;;;5069741;28;21282;-68
2023/09/17 08:23:14;;;;;;;;;;;;;;;;;;5049964;28;19925;-68
2023/09/17 08:25:40;;;;;;;;;;;;;;;;;;5047785;28;19929;-69
2023/09/17 08:28:07;;;;;;;;;;;;;;;;;;5049465;28;19921;-69
2023/09/17 08:30:32;;;;;;;;;;;;;;;;;;5013853;28;19952;-68
2023/09/17 08:33:00;;;;;;;;;;;;;;;;;;5030964;28;19971;-69
2023/09/17 08:35:26;;;;;;;;;;;;;;;;;;5046231;28;20012;-69
2023/09/17 08:37:52;;;;;;;;;;;;;;;;;;5049043;28;20012;-69
2023/09/17 08:40:18;;;;;;;;;;;;;;;;;;5052305;28;19925;-68
2023/09/17 08:42:44;;;;;;;;;;;;;;;;;;5053232;28;20007;-69
2023/09/17 08:45:10;;;;;;;;;;;;;;;;;;5049172;28;19925;-68
2023/09/17 08:47:36;;;;;;;;;;;;;;;;;;5058310;28;19932;-70
2023/09/17 08:50:02;;;;;;;;;;;;;;;;;;5036677;28;20023;-69
2023/09/17 08:52:28;;;;;;;;;;;;;;;;;;5053991;28;19928;-69
2023/09/17 08:54:54;;;;;;;;;;;;;;;;;;5053007;28;19970;-69
2023/09/17 08:57:20;;;;;;;;;;;;;;;;;;5045989;28;21372;-69
2023/09/17 08:59:46;;;;;;;;;;;;;;;;;;5048266;28;20353;-69
2023/09/17 09:02:12;;;;;;;;;;;;;;;;;;5050078;28;19975;-70
2023/09/17 09:04:38;;;;;;;;;;;;;;;;;;5035407;28;20144;-69
2023/09/17 09:07:03;;;;;;;;;;;;;;;;;;5037708;28;19925;-69
2023/09/17 09:09:30;;;;;;;;;;;;;;;;;;5050706;28;19921;-69
2023/09/17 09:11:55;;;;;;;;;;;;;;;;;;5050678;28;19928;-69
2023/09/17 09:14:21;;;;;;;;;;;;;;;;;;5060981;28;20480;-69
2023/09/17 09:16:47;;;;;;;;;;;;;;;;;;5030959;28;19968;-69
2023/09/17 09:19:13;;;;;;;;;;;;;;;;;;5050991;28;19934;-69
2023/09/17 09:21:39;;;;;;;;;;;;;;;;;;5046493;28;19936;-69
2023/09/17 09:24:05;;;;;;;;;;;;;;;;;;5032280;28;20388;-69
2023/09/17 09:26:31;;;;;;;;;;;;;;;;;;5042627;28;19936;-68
2023/09/17 09:28:57;;;;;;;;;;;;;;;;;;5032872;28;19921;-69
2023/09/17 09:31:23;;;;;;;;;;;;;;;;;;5015927;28;19935;-69
2023/09/17 09:33:49;;;;;;;;;;;;;;;;;;5034770;28;19928;-69
2023/09/17 09:36:15;;;;;;;;;;;;;;;;;;5031069;28;20000;-69
2023/09/17 09:38:41;;;;;;;;;;;;;;;;;;5051091;28;19928;-70
2023/09/17 09:41:07;;;;;;;;;;;;;;;;;;5048972;28;20446;-68
2023/09/17 09:43:33;;;;;;;;;;;;;;;;;;5036521;28;20551;-68
2023/09/17 09:45:59;;;;;;;;;;;;;;;;;;5046163;28;19925;-68
2023/09/17 09:48:26;;;;;;;;;;;;;;;;;;5036826;28;19920;-68
2023/09/17 09:50:53;;;;;;;;;;;;;;;;;;5052456;28;20425;-68
2023/09/17 09:53:19;;;;;;;;;;;;;;;;;;5030522;28;19929;-68
2023/09/17 09:55:45;;;;;;;;;;;;;;;;;;5032089;28;20602;-68
2023/09/17 09:58:11;;;;;;;;;;;;;;;;;;5026722;28;20012;-69
2023/09/17 10:00:44;;;;;;;;;;;;;;;;;;5027266;28;20011;-68
2023/09/17 10:03:10;;;;;;;;;;;;;;;;;;5035874;28;20390;-68
2023/09/17 10:05:42;;;;;;;;;;;;;;;;;;5029297;28;19925;-68
2023/09/17 10:08:08;;;;;;;;;;;;;;;;;;5029123;28;20469;-68
2023/09/17 10:10:34;;;;;;;;;;;;;;;;;;5020373;28;19925;-68
2023/09/17 10:13:00;;;;;;;;;;;;;;;;;;5026785;28;20375;-68
2023/09/17 10:15:26;;;;;;;;;;;;;;;;;;5027581;28;19921;-68
2023/09/17 10:17:52;;;;;;;;;;;;;;;;;;5032878;28;20362;-68
2023/09/17 10:20:18;;;;;;;;;;;;;;;;;;5032676;28;19928;-68
2023/09/17 10:22:44;;;;;;;;;;;;;;;;;;5046998;28;19937;-68
2023/09/17 10:25:10;;;;;;;;;;;;;;;;;;5028105;28;19952;-69
2023/09/17 10:27:36;;;;;;;;;;;;;;;;;;5027052;28;20620;-68
2023/09/17 10:30:03;;;;;;;;;;;;;;;;;;5034417;28;19920;-68
2023/09/17 10:32:29;;;;;;;;;;;;;;;;;;5022740;28;19929;-68
2023/09/17 10:34:57;;;;;;;;;;;;;;;;;;5025712;28;20043;-69
2023/09/17 10:37:22;;;;;;;;;;;;;;;;;;5028923;28;19979;-68
2023/09/17 10:39:48;;;;;;;;;;;;;;;;;;5025764;28;20295;-68
2023/09/17 10:42:14;;;;;;;;;;;;;;;;;;5029886;28;19928;-67
2023/09/17 10:44:40;;;;;;;;;;;;;;;;;;5027326;28;19972;-67
2023/09/17 10:47:06;;;;;;;;;;;;;;;;;;5036105;28;20019;-68
2023/09/17 10:49:32;;;;;;;;;;;;;;;;;;5040758;28;19969;-68
2023/09/17 10:51:58;;;;;;;;;;;;;;;;;;5027435;28;19921;-68
2023/09/17 10:54:24;;;;;;;;;;;;;;;;;;5050835;28;19928;-68
2023/09/17 10:56:50;;;;;;;;;;;;;;;;;;5050014;28;20263;-68
2023/09/17 10:59:16;;;;;;;;;;;;;;;;;;5035453;28;19968;-68
2023/09/17 11:01:49;;;;;;;;;;;;;;;;;;5066611;28;19933;-67
2023/09/17 11:04:18;;;;;;;;;;;;;;;;;;5066621;28;19971;-67
2023/09/17 11:06:44;;;;;;;;;;;;;;;;;;5063169;28;19921;-68
2023/09/17 11:09:11;;;;;;;;;;;;;;;;;;5110436;22;19947;-64
2023/09/17 11:11:37;;;;;;;;;;;;;;;;;;5108924;28;20280;-65
2023/09/17 11:14:05;;;;;;;;;;;;;;;;;;5109086;28;19924;-66
2023/09/17 11:16:31;;;;;;;;;;;;;;;;;;5108935;28;20368;-66
2023/09/17 11:18:58;;;;;;;;;;;;;;;;;;5108543;28;19924;-65
2023/09/17 11:21:23;;;;;;;;;;;;;;;;;;5105299;28;19966;-65
2023/09/17 11:23:49;;;;;;;;;;;;;;;;;;5108588;28;19967;-66
2023/09/17 11:26:15;;;;;;;;;;;;;;;;;;5108463;28;20567;-66
2023/09/17 11:28:41;;;;;;;;;;;;;;;;;;5110831;28;19930;-65
2023/09/17 11:31:13;;;;;;;;;;;;;;;;;;5109753;28;19927;-65
2023/09/17 11:33:38;;;;;;;;;;;;;;;;;;5108958;28;19963;-65
2023/09/17 11:36:04;;;;;;;;;;;;;;;;;;5126077;27;20318;-65
2023/09/17 11:38:30;;;;;;;;;;;;;;;;;;5112702;28;19924;-65
2023/09/17 11:40:56;;;;;;;;;;;;;;;;;;5107195;28;19970;-65
2023/09/17 11:43:22;;;;;;;;;;;;;;;;;;5108199;28;19985;-66
2023/09/17 11:45:48;;;;;;;;;;;;;;;;;;5106451;28;19928;-66
2023/09/17 11:48:14;;;;;;;;;;;;;;;;;;5108180;28;20041;-66
2023/09/17 11:50:40;;;;;;;;;;;;;;;;;;5105367;28;19969;-66
2023/09/17 11:53:06;;;;;;;;;;;;;;;;;;5137732;27;19946;-66
2023/09/17 11:55:35;;;;;;;;;;;;;;;;;;5106136;28;19945;-65
2023/09/17 11:58:01;;;;;;;;;;;;;;;;;;5131249;27;19928;-66
2023/09/17 12:00:27;;;;;;;;;;;;;;;;;;5107547;28;19924;-66
2023/09/17 12:02:53;;;;;;;;;;;;;;;;;;5106931;28;19935;-66
2023/09/17 12:05:19;;;;;;;;;;;;;;;;;;5105742;28;19924;-65
2023/09/17 12:07:46;;;;;;;;;;;;;;;;;;5106030;28;19928;-65
2023/09/17 12:10:12;;;;;;;;;;;;;;;;;;5107891;28;20388;-66
2023/09/17 12:12:38;;;;;;;;;;;;;;;;;;5094736;28;19928;-65
2023/09/17 12:15:04;;;;;;;;;;;;;;;;;;5091527;28;19920;-65
2023/09/17 12:17:30;;;;;;;;;;;;;;;;;;5087479;28;19920;-66
2023/09/17 12:20:00;;;;;;;;;;;;;;;;;;5093210;28;19958;-66
2023/09/17 12:22:26;;;;;;;;;;;;;;;;;;5090965;28;19998;-66
2023/09/17 12:24:58;;;;;;;;;;;;;;;;;;5092906;28;19928;-67
2023/09/17 12:27:24;;;;;;;;;;;;;;;;;;5109410;27;19924;-67
2023/09/17 12:29:50;;;;;;;;;;;;;;;;;;5126816;27;19920;-67
2023/09/17 12:32:16;;;;;;;;;;;;;;;;;;5119415;27;20010;-67
2023/09/17 12:34:42;;;;;;;;;;;;;;;;;;5092964;28;20399;-67
2023/09/17 12:37:11;;;;;;;;;;;;;;;;;;5093602;28;19920;-67
2023/09/17 12:39:37;;;;;;;;;;;;;;;;;;5090115;28;19920;-67
2023/09/17 12:42:03;;;;;;;;;;;;;;;;;;5092249;28;19994;-67
2023/09/17 12:44:29;;;;;;;;;;;;;;;;;;5091989;28;20400;-67
2023/09/17 12:46:55;;;;;;;;;;;;;;;;;;5086790;28;19974;-66
2023/09/17 12:49:21;;;;;;;;;;;;;;;;;;5090945;28;19931;-67
2023/09/17 12:51:47;;;;;;;;;;;;;;;;;;5088014;28;19924;-67
2023/09/17 12:54:13;;;;;;;;;;;;;;;;;;5086804;28;19924;-68
2023/09/17 12:56:39;;;;;;;;;;;;;;;;;;5107848;27;19932;-66
2023/09/17 12:59:05;;;;;;;;;;;;;;;;;;5091146;28;19931;-67
2023/09/17 13:01:31;;;;;;;;;;;;;;;;;;5089822;28;19967;-66
2023/09/17 13:04:01;;;;;;;;;;;;;;;;;;5089011;28;19924;-67
2023/09/17 13:06:27;;;;;;;;;;;;;;;;;;5063722;28;19931;-67
2023/09/17 13:08:53;;;;;;;;;;;;;;;;;;5118001;27;19928;-66
2023/09/17 13:11:19;;;;;;;;;;;;;;;;;;5088069;28;20662;-67
2023/09/17 13:13:45;;;;;;;;;;;;;;;;;;5072252;28;19959;-66
2023/09/17 13:16:11;;;;;;;;;;;;;;;;;;5098567;28;19963;-67
2023/09/17 13:18:37;;;;;;;;;;;;;;;;;;5087920;28;19923;-66
2023/09/17 13:21:03;;;;;;;;;;;;;;;;;;5092614;28;19924;-66
2023/09/17 13:23:28;;;;;;;;;;;;;;;;;;5102647;27;19967;-66
2023/09/17 13:25:54;;;;;;;;;;;;;;;;;;5091541;28;20040;-67
2023/09/17 13:28:20;;;;;;;;;;;;;;;;;;5108003;27;19924;-67
2023/09/17 13:30:46;;;;;;;;;;;;;;;;;;5094604;28;19920;-66
2023/09/17 13:33:13;;;;;;;;;;;;;;;;;;5093302;28;19928;-66
2023/09/17 13:35:39;;;;;;;;;;;;;;;;;;5091334;28;19992;-66
2023/09/17 13:38:05;;;;;;;;;;;;;;;;;;5083802;28;19924;-67
2023/09/17 13:40:31;;;;;;;;;;;;;;;;;;5086925;28;19958;-66
2023/09/17 13:42:57;;;;;;;;;;;;;;;;;;5099953;28;19923;-67
2023/09/17 13:45:23;;;;;;;;;;;;;;;;;;5095050;28;20579;-66
2023/09/17 13:47:49;;;;;;;;;;;;;;;;;;5094012;28;19920;-66
2023/09/17 13:50:15;;;;;;;;;;;;;;;;;;5091717;28;20778;-68
2023/09/17 13:52:41;;;;;;;;;;;;;;;;;;5087849;28;19946;-66
2023/09/17 13:55:07;;;;;;;;;;;;;;;;;;5094766;28;19926;-66
2023/09/17 13:57:33;;;;;;;;;;;;;;;;;;5092289;28;19924;-66
2023/09/17 13:59:59;;;;;;;;;;;;;;;;;;5104923;28;20526;-66
2023/09/17 14:02:24;;;;;;;;;;;;;;;;;;5104559;28;19932;-66
2023/09/17 14:04:50;;;;;;;;;;;;;;;;;;5089034;28;20332;-67
2023/09/17 14:07:16;;;;;;;;;;;;;;;;;;5093953;28;19920;-68
2023/09/17 14:09:42;;;;;;;;;;;;;;;;;;5087932;28;19924;-68
2023/09/17 14:12:08;;;;;;;;;;;;;;;;;;5088187;28;20050;-67
2023/09/17 14:14:34;;;;;;;;;;;;;;;;;;5086349;28;19928;-66
2023/09/17 14:17:00;;;;;;;;;;;;;;;;;;5091854;28;19974;-67
2023/09/17 14:19:26;;;;;;;;;;;;;;;;;;5098878;28;19927;-67
2023/09/17 14:21:52;;;;;;;;;;;;;;;;;;5108113;28;19928;-68
2023/09/17 14:24:18;;;;;;;;;;;;;;;;;;5095455;28;19920;-66
2023/09/17 14:26:44;;;;;;;;;;;;;;;;;;5089937;28;19967;-66
2023/09/17 14:29:10;;;;;;;;;;;;;;;;;;5096529;28;20032;-67
2023/09/17 14:31:36;;;;;;;;;;;;;;;;;;5085365;28;19928;-66
2023/09/17 14:34:02;;;;;;;;;;;;;;;;;;5091909;28;20281;-66
2023/09/17 14:36:28;;;;;;;;;;;;;;;;;;5090969;28;19924;-67
2023/09/17 14:38:55;;;;;;;;;;;;;;;;;;5090531;28;19924;-67
2023/09/17 14:41:21;;;;;;;;;;;;;;;;;;5092108;28;20365;-67
2023/09/17 14:43:46;;;;;;;;;;;;;;;;;;5089431;28;19975;-66
2023/09/17 14:46:12;;;;;;;;;;;;;;;;;;5085897;28;19928;-67
2023/09/17 14:48:38;;;;;;;;;;;;;;;;;;5111635;27;19919;-67
2023/09/17 14:51:04;;;;;;;;;;;;;;;;;;5093560;28;19926;-67
2023/09/17 14:53:30;;;;;;;;;;;;;;;;;;5086838;28;19938;-66
2023/09/17 14:55:56;;;;;;;;;;;;;;;;;;5094764;28;19974;-67
2023/09/17 14:58:22;;;;;;;;;;;;;;;;;;5099319;28;20138;-67
2023/09/17 15:00:50;;;;;;;;;;;;;;;;;;5088128;28;19924;-67
2023/09/17 15:03:15;;;;;;;;;;;;;;;;;;5087099;28;19924;-66
2023/09/17 15:05:41;;;;;;;;;;;;;;;;;;5093768;28;20341;-67
2023/09/17 15:08:07;;;;;;;;;;;;;;;;;;5090740;28;19975;-66
2023/09/17 15:10:33;;;;;;;;;;;;;;;;;;5092283;28;20011;-67
2023/09/17 15:12:59;;;;;;;;;;;;;;;;;;5129139;27;19923;-66
2023/09/17 15:15:25;;;;;;;;;;;;;;;;;;5086219;28;19928;-67
2023/09/17 15:17:51;;;;;;;;;;;;;;;;;;5085352;28;19924;-66
2023/09/17 15:20:17;;;;;;;;;;;;;;;;;;5111423;27;19980;-67
2023/09/17 15:22:43;;;;;;;;;;;;;;;;;;5092964;28;19928;-67
2023/09/17 15:25:09;;;;;;;;;;;;;;;;;;5092194;28;19955;-66
2023/09/17 15:27:35;;;;;;;;;;;;;;;;;;5089682;28;19930;-66
2023/09/17 15:30:00;;;;;;;;;;;;;;;;;;5108113;28;20011;-67
2023/09/17 15:32:26;;;;;;;;;;;;;;;;;;5088100;28;19988;-66
2023/09/17 15:34:52;;;;;;;;;;;;;;;;;;5083258;28;20335;-67
2023/09/17 15:37:19;;;;;;;;;;;;;;;;;;5088079;28;19977;-67
2023/09/17 15:39:45;;;;;;;;;;;;;;;;;;5089720;28;20089;-66
2023/09/17 15:42:11;;;;;;;;;;;;;;;;;;5091339;28;19920;-67
2023/09/17 15:44:37;;;;;;;;;;;;;;;;;;5089628;28;19924;-66
2023/09/17 15:47:03;;;;;;;;;;;;;;;;;;5087527;28;20064;-66
2023/09/17 15:49:29;;;;;;;;;;;;;;;;;;5093570;28;20003;-66
2023/09/17 15:51:55;;;;;;;;;;;;;;;;;;5088474;28;20007;-66
2023/09/17 15:54:20;;;;;;;;;;;;;;;;;;5092477;28;20373;-65
2023/09/17 15:56:46;;;;;;;;;;;;;;;;;;5090321;28;19998;-66
2023/09/17 15:59:12;;;;;;;;;;;;;;;;;;5090883;28;19927;-66
2023/09/17 16:01:40;;;;;;;;;;;;;;;;;;5087942;28;19966;-66
2023/09/17 16:04:06;;;;;;;;;;;;;;;;;;5085468;28;19921;-66
2023/09/17 16:06:32;;;;;;;;;;;;;;;;;;5092121;28;20361;-67
2023/09/17 16:08:58;;;;;;;;;;;;;;;;;;5091485;28;19928;-65
2023/09/17 16:11:24;;;;;;;;;;;;;;;;;;5098492;28;19935;-65
2023/09/17 16:13:49;;;;;;;;;;;;;;;;;;5087931;28;19920;-66
2023/09/17 16:16:15;;;;;;;;;;;;;;;;;;5087255;28;19935;-67
2023/09/17 16:18:42;;;;;;;;;;;;;;;;;;5093323;28;19924;-66
2023/09/17 16:21:08;;;;;;;;;;;;;;;;;;5089835;28;20278;-67
2023/09/17 16:23:34;;;;;;;;;;;;;;;;;;5094695;28;20015;-66
2023/09/17 16:26:00;;;;;;;;;;;;;;;;;;5089096;28;19946;-66
2023/09/17 16:28:26;;;;;;;;;;;;;;;;;;5088349;28;20296;-66
2023/09/17 16:30:52;;;;;;;;;;;;;;;;;;5085167;28;19920;-66
2023/09/17 16:33:17;;;;;;;;;;;;;;;;;;5091638;28;19927;-66
2023/09/17 16:35:43;;;;;;;;;;;;;;;;;;5086130;28;19924;-66
2023/09/17 16:38:09;;;;;;;;;;;;;;;;;;5089295;28;19924;-67